sensor_id;sensor_type;location;lat;lon;timestamp;P1;durP1;ratioP1;P2;durP2;ratioP2
21833;SDS011;11079;51.092;3.458;2022-10-19T00:01:55;9.88;;;4.88;;
21833;SDS011;11079;51.092;3.458;2022-10-19T00:04:32;13.68;;;5.18;;
21833;SDS011;11079;51.092;3.458;2022-10-19T00:07:06;15.48;;;5.95;;
21833;SDS011;11079;51.092;3.458;2022-10-19T00:09:36;11.20;;;5.47;;
21833;SDS011;11079;51.092;3.458;2022-10-19T00:12:16;18.77;;;6.00;;
21833;SDS011;11079;51.092;3.458;2022-10-19T00:14:57;13.30;;;5.97;;
21833;SDS011;11079;51.092;3.458;2022-10-19T00:17:23;12.32;;;5.82;;
21833;SDS011;11079;51.092;3.458;2022-10-19T00:19:51;11.85;;;6.38;;
21833;SDS011;11079;51.092;3.458;2022-10-19T00:22:23;13.73;;;6.65;;
21833;SDS011;11079;51.092;3.458;2022-10-19T00:24:56;13.82;;;6.53;;
21833;SDS011;11079;51.092;3.458;2022-10-19T00:27:53;16.63;;;7.78;;
21833;SDS011;11079;51.092;3.458;2022-10-19T00:30:34;15.52;;;7.68;;
21833;SDS011;11079;51.092;3.458;2022-10-19T00:33:14;18.80;;;8.43;;
21833;SDS011;11079;51.092;3.458;2022-10-19T00:35:47;18.13;;;8.07;;
21833;SDS011;11079;51.092;3.458;2022-10-19T00:38:19;22.30;;;8.07;;
21833;SDS011;11079;51.092;3.458;2022-10-19T00:41:04;17.52;;;8.10;;
21833;SDS011;11079;51.092;3.458;2022-10-19T00:46:50;20.67;;;8.45;;
21833;SDS011;11079;51.092;3.458;2022-10-19T00:50:00;19.23;;;9.68;;
21833;SDS011;11079;51.092;3.458;2022-10-19T00:56:13;14.75;;;7.53;;
21833;SDS011;11079;51.092;3.458;2022-10-19T00:58:52;10.48;;;7.20;;
21833;SDS011;11079;51.092;3.458;2022-10-19T01:02:00;13.10;;;6.57;;
21833;SDS011;11079;51.092;3.458;2022-10-19T01:04:39;16.80;;;7.75;;
21833;SDS011;11079;51.092;3.458;2022-10-19T01:07:15;16.40;;;7.07;;
21833;SDS011;11079;51.092;3.458;2022-10-19T01:09:46;18.75;;;7.80;;
21833;SDS011;11079;51.092;3.458;2022-10-19T01:40:25;22.73;;;9.50;;
21833;SDS011;11079;51.092;3.458;2022-10-19T01:42:57;15.95;;;8.10;;
21833;SDS011;11079;51.092;3.458;2022-10-19T01:45:38;17.15;;;8.13;;
21833;SDS011;11079;51.092;3.458;2022-10-19T01:48:35;17.95;;;8.00;;
21833;SDS011;11079;51.092;3.458;2022-10-19T01:54:24;17.95;;;8.35;;
21833;SDS011;11079;51.092;3.458;2022-10-19T01:56:57;15.90;;;6.78;;
21833;SDS011;11079;51.092;3.458;2022-10-19T01:59:26;13.18;;;7.95;;
21833;SDS011;11079;51.092;3.458;2022-10-19T02:01:55;17.70;;;7.45;;
21833;SDS011;11079;51.092;3.458;2022-10-19T02:04:25;15.18;;;8.80;;
21833;SDS011;11079;51.092;3.458;2022-10-19T02:06:54;13.55;;;7.45;;
21833;SDS011;11079;51.092;3.458;2022-10-19T02:09:23;13.10;;;7.35;;
21833;SDS011;11079;51.092;3.458;2022-10-19T02:12:07;20.17;;;8.20;;
21833;SDS011;11079;51.092;3.458;2022-10-19T02:14:57;14.63;;;7.85;;
21833;SDS011;11079;51.092;3.458;2022-10-19T02:17:24;19.98;;;7.93;;
21833;SDS011;11079;51.092;3.458;2022-10-19T02:20:21;18.20;;;8.13;;
21833;SDS011;11079;51.092;3.458;2022-10-19T02:22:46;15.50;;;6.93;;
21833;SDS011;11079;51.092;3.458;2022-10-19T02:25:18;16.17;;;7.25;;
21833;SDS011;11079;51.092;3.458;2022-10-19T02:27:47;21.67;;;7.07;;
21833;SDS011;11079;51.092;3.458;2022-10-19T02:30:34;16.70;;;7.05;;
21833;SDS011;11079;51.092;3.458;2022-10-19T02:33:13;14.77;;;6.38;;
21833;SDS011;11079;51.092;3.458;2022-10-19T02:35:39;14.95;;;6.78;;
21833;SDS011;11079;51.092;3.458;2022-10-19T02:38:05;16.15;;;7.13;;
21833;SDS011;11079;51.092;3.458;2022-10-19T02:40:35;13.23;;;7.03;;
21833;SDS011;11079;51.092;3.458;2022-10-19T02:43:09;15.38;;;6.60;;
21833;SDS011;11079;51.092;3.458;2022-10-19T02:45:42;20.33;;;7.47;;
21833;SDS011;11079;51.092;3.458;2022-10-19T02:48:26;18.15;;;7.53;;
21833;SDS011;11079;51.092;3.458;2022-10-19T02:54:02;14.65;;;6.95;;
21833;SDS011;11079;51.092;3.458;2022-10-19T02:56:32;22.85;;;7.90;;
21833;SDS011;11079;51.092;3.458;2022-10-19T02:59:02;15.05;;;6.97;;
21833;SDS011;11079;51.092;3.458;2022-10-19T03:01:27;17.00;;;7.70;;
21833;SDS011;11079;51.092;3.458;2022-10-19T03:04:03;18.75;;;7.93;;
21833;SDS011;11079;51.092;3.458;2022-10-19T03:06:39;21.83;;;8.45;;
21833;SDS011;11079;51.092;3.458;2022-10-19T03:09:05;17.77;;;8.23;;
21833;SDS011;11079;51.092;3.458;2022-10-19T03:21:53;15.85;;;7.18;;
21833;SDS011;11079;51.092;3.458;2022-10-19T03:24:22;17.17;;;7.20;;
21833;SDS011;11079;51.092;3.458;2022-10-19T03:27:05;17.42;;;7.00;;
21833;SDS011;11079;51.092;3.458;2022-10-19T03:29:35;17.63;;;6.97;;
21833;SDS011;11079;51.092;3.458;2022-10-19T03:32:21;20.92;;;7.18;;
21833;SDS011;11079;51.092;3.458;2022-10-19T03:34:58;15.55;;;6.80;;
21833;SDS011;11079;51.092;3.458;2022-10-19T03:37:26;12.32;;;6.30;;
21833;SDS011;11079;51.092;3.458;2022-10-19T03:39:51;18.63;;;8.60;;
21833;SDS011;11079;51.092;3.458;2022-10-19T03:42:20;18.63;;;6.75;;
21833;SDS011;11079;51.092;3.458;2022-10-19T03:44:45;15.30;;;6.53;;
21833;SDS011;11079;51.092;3.458;2022-10-19T03:47:11;12.75;;;5.82;;
21833;SDS011;11079;51.092;3.458;2022-10-19T03:49:40;17.15;;;6.22;;
21833;SDS011;11079;51.092;3.458;2022-10-19T03:52:14;18.33;;;6.07;;
21833;SDS011;11079;51.092;3.458;2022-10-19T03:54:40;14.50;;;5.45;;
21833;SDS011;11079;51.092;3.458;2022-10-19T03:57:08;18.52;;;6.20;;
21833;SDS011;11079;51.092;3.458;2022-10-19T03:59:35;12.65;;;6.50;;
21833;SDS011;11079;51.092;3.458;2022-10-19T04:02:01;15.57;;;6.43;;
21833;SDS011;11079;51.092;3.458;2022-10-19T04:04:27;16.45;;;6.50;;
21833;SDS011;11079;51.092;3.458;2022-10-19T04:06:53;21.63;;;7.47;;
21833;SDS011;11079;51.092;3.458;2022-10-19T04:09:30;18.05;;;6.72;;
21833;SDS011;11079;51.092;3.458;2022-10-19T04:11:56;19.80;;;7.63;;
21833;SDS011;11079;51.092;3.458;2022-10-19T04:14:31;14.32;;;6.97;;
21833;SDS011;11079;51.092;3.458;2022-10-19T04:17:00;16.35;;;6.65;;
21833;SDS011;11079;51.092;3.458;2022-10-19T04:19:29;13.43;;;7.60;;
21833;SDS011;11079;51.092;3.458;2022-10-19T04:22:01;20.58;;;7.93;;
21833;SDS011;11079;51.092;3.458;2022-10-19T04:24:59;14.93;;;7.03;;
21833;SDS011;11079;51.092;3.458;2022-10-19T04:30:35;15.32;;;6.85;;
21833;SDS011;11079;51.092;3.458;2022-10-19T04:33:46;13.75;;;7.53;;
21833;SDS011;11079;51.092;3.458;2022-10-19T04:36:12;24.35;;;7.72;;
21833;SDS011;11079;51.092;3.458;2022-10-19T04:38:49;14.90;;;7.40;;
21833;SDS011;11079;51.092;3.458;2022-10-19T04:41:23;18.92;;;7.70;;
21833;SDS011;11079;51.092;3.458;2022-10-19T04:43:59;17.52;;;7.50;;
21833;SDS011;11079;51.092;3.458;2022-10-19T04:46:29;19.00;;;8.93;;
21833;SDS011;11079;51.092;3.458;2022-10-19T04:48:57;16.45;;;7.80;;
21833;SDS011;11079;51.092;3.458;2022-10-19T04:51:28;16.10;;;7.90;;
21833;SDS011;11079;51.092;3.458;2022-10-19T04:54:04;18.75;;;7.63;;
21833;SDS011;11079;51.092;3.458;2022-10-19T04:56:46;16.90;;;8.52;;
21833;SDS011;11079;51.092;3.458;2022-10-19T04:59:12;18.42;;;8.90;;
21833;SDS011;11079;51.092;3.458;2022-10-19T05:02:06;22.92;;;9.80;;
21833;SDS011;11079;51.092;3.458;2022-10-19T05:04:35;16.77;;;7.82;;
21833;SDS011;11079;51.092;3.458;2022-10-19T05:07:08;22.00;;;8.55;;
21833;SDS011;11079;51.092;3.458;2022-10-19T05:12:58;16.73;;;8.15;;
21833;SDS011;11079;51.092;3.458;2022-10-19T05:15:28;23.58;;;8.75;;
21833;SDS011;11079;51.092;3.458;2022-10-19T05:17:57;17.88;;;8.50;;
21833;SDS011;11079;51.092;3.458;2022-10-19T05:20:23;20.95;;;10.10;;
21833;SDS011;11079;51.092;3.458;2022-10-19T05:23:04;19.92;;;9.50;;
21833;SDS011;11079;51.092;3.458;2022-10-19T05:25:32;27.83;;;9.00;;
21833;SDS011;11079;51.092;3.458;2022-10-19T05:28:01;19.17;;;7.47;;
21833;SDS011;11079;51.092;3.458;2022-10-19T05:30:29;15.68;;;8.60;;
21833;SDS011;11079;51.092;3.458;2022-10-19T05:32:59;15.55;;;8.00;;
21833;SDS011;11079;51.092;3.458;2022-10-19T05:35:27;17.88;;;8.75;;
21833;SDS011;11079;51.092;3.458;2022-10-19T05:40:45;26.27;;;8.35;;
21833;SDS011;11079;51.092;3.458;2022-10-19T05:43:40;20.08;;;8.00;;
21833;SDS011;11079;51.092;3.458;2022-10-19T05:46:07;20.80;;;9.05;;
21833;SDS011;11079;51.092;3.458;2022-10-19T05:48:42;17.92;;;9.35;;
21833;SDS011;11079;51.092;3.458;2022-10-19T05:51:12;20.08;;;8.43;;
21833;SDS011;11079;51.092;3.458;2022-10-19T05:53:47;23.55;;;9.55;;
21833;SDS011;11079;51.092;3.458;2022-10-19T05:56:31;18.88;;;8.32;;
21833;SDS011;11079;51.092;3.458;2022-10-19T05:58:59;18.55;;;9.30;;
21833;SDS011;11079;51.092;3.458;2022-10-19T06:01:52;24.92;;;9.23;;
21833;SDS011;11079;51.092;3.458;2022-10-19T06:04:52;18.05;;;10.50;;
21833;SDS011;11079;51.092;3.458;2022-10-19T06:07:54;16.88;;;9.20;;
21833;SDS011;11079;51.092;3.458;2022-10-19T06:10:27;14.85;;;9.73;;
21833;SDS011;11079;51.092;3.458;2022-10-19T06:16:08;19.48;;;9.90;;
21833;SDS011;11079;51.092;3.458;2022-10-19T06:18:34;25.20;;;10.02;;
21833;SDS011;11079;51.092;3.458;2022-10-19T06:21:09;24.95;;;10.13;;
21833;SDS011;11079;51.092;3.458;2022-10-19T06:23:36;22.58;;;9.57;;
21833;SDS011;11079;51.092;3.458;2022-10-19T06:26:03;21.98;;;9.70;;
21833;SDS011;11079;51.092;3.458;2022-10-19T06:28:55;20.77;;;9.52;;
21833;SDS011;11079;51.092;3.458;2022-10-19T06:31:42;23.08;;;10.07;;
21833;SDS011;11079;51.092;3.458;2022-10-19T06:34:09;23.23;;;9.48;;
21833;SDS011;11079;51.092;3.458;2022-10-19T06:36:35;22.20;;;10.82;;
21833;SDS011;11079;51.092;3.458;2022-10-19T06:39:04;22.23;;;10.32;;
21833;SDS011;11079;51.092;3.458;2022-10-19T06:41:30;18.63;;;9.70;;
21833;SDS011;11079;51.092;3.458;2022-10-19T06:47:12;18.73;;;8.77;;
21833;SDS011;11079;51.092;3.458;2022-10-19T06:53:18;18.70;;;8.38;;
21833;SDS011;11079;51.092;3.458;2022-10-19T06:56:04;15.50;;;7.78;;
21833;SDS011;11079;51.092;3.458;2022-10-19T06:58:45;14.65;;;7.47;;
21833;SDS011;11079;51.092;3.458;2022-10-19T07:01:15;17.08;;;7.70;;
21833;SDS011;11079;51.092;3.458;2022-10-19T07:03:40;13.05;;;7.40;;
21833;SDS011;11079;51.092;3.458;2022-10-19T07:06:41;10.30;;;6.13;;
21833;SDS011;11079;51.092;3.458;2022-10-19T07:09:10;17.77;;;7.18;;
21833;SDS011;11079;51.092;3.458;2022-10-19T07:11:35;13.57;;;6.45;;
21833;SDS011;11079;51.092;3.458;2022-10-19T07:16:38;22.95;;;8.60;;
21833;SDS011;11079;51.092;3.458;2022-10-19T07:20:01;13.73;;;7.03;;
21833;SDS011;11079;51.092;3.458;2022-10-19T07:22:48;13.30;;;6.75;;
21833;SDS011;11079;51.092;3.458;2022-10-19T07:28:11;10.30;;;6.43;;
21833;SDS011;11079;51.092;3.458;2022-10-19T07:35:00;15.85;;;6.05;;
21833;SDS011;11079;51.092;3.458;2022-10-19T07:37:25;10.48;;;6.32;;
21833;SDS011;11079;51.092;3.458;2022-10-19T07:39:54;12.07;;;5.95;;
21833;SDS011;11079;51.092;3.458;2022-10-19T07:42:19;9.38;;;5.93;;
21833;SDS011;11079;51.092;3.458;2022-10-19T07:44:51;11.60;;;5.95;;
21833;SDS011;11079;51.092;3.458;2022-10-19T07:47:17;12.05;;;5.00;;
21833;SDS011;11079;51.092;3.458;2022-10-19T07:53:40;17.13;;;5.55;;
21833;SDS011;11079;51.092;3.458;2022-10-19T07:56:26;19.23;;;6.20;;
21833;SDS011;11079;51.092;3.458;2022-10-19T07:59:04;14.05;;;6.30;;
21833;SDS011;11079;51.092;3.458;2022-10-19T08:01:30;14.65;;;6.10;;
21833;SDS011;11079;51.092;3.458;2022-10-19T08:04:46;10.38;;;6.05;;
21833;SDS011;11079;51.092;3.458;2022-10-19T08:07:15;14.07;;;6.40;;
21833;SDS011;11079;51.092;3.458;2022-10-19T08:09:41;18.17;;;6.53;;
21833;SDS011;11079;51.092;3.458;2022-10-19T08:12:07;14.40;;;6.82;;
21833;SDS011;11079;51.092;3.458;2022-10-19T08:14:34;17.30;;;6.75;;
21833;SDS011;11079;51.092;3.458;2022-10-19T08:17:00;15.32;;;6.53;;
21833;SDS011;11079;51.092;3.458;2022-10-19T08:22:29;9.63;;;5.03;;
21833;SDS011;11079;51.092;3.458;2022-10-19T08:25:35;12.52;;;6.70;;
21833;SDS011;11079;51.092;3.458;2022-10-19T08:30:44;11.75;;;5.18;;
21833;SDS011;11079;51.092;3.458;2022-10-19T08:36:33;14.48;;;5.07;;
21833;SDS011;11079;51.092;3.458;2022-10-19T08:39:18;13.88;;;5.60;;
21833;SDS011;11079;51.092;3.458;2022-10-19T08:50:55;14.80;;;5.47;;
21833;SDS011;11079;51.092;3.458;2022-10-19T09:06:15;11.93;;;5.35;;
21833;SDS011;11079;51.092;3.458;2022-10-19T09:09:17;11.10;;;4.68;;
21833;SDS011;11079;51.092;3.458;2022-10-19T09:11:48;10.23;;;4.88;;
21833;SDS011;11079;51.092;3.458;2022-10-19T09:17:15;11.48;;;4.57;;
21833;SDS011;11079;51.092;3.458;2022-10-19T09:19:41;11.27;;;4.32;;
21833;SDS011;11079;51.092;3.458;2022-10-19T09:22:10;12.43;;;5.05;;
21833;SDS011;11079;51.092;3.458;2022-10-19T09:27:36;14.40;;;4.70;;
21833;SDS011;11079;51.092;3.458;2022-10-19T09:30:20;19.75;;;5.93;;
21833;SDS011;11079;51.092;3.458;2022-10-19T09:32:48;8.95;;;4.65;;
21833;SDS011;11079;51.092;3.458;2022-10-19T09:35:33;11.60;;;4.22;;
21833;SDS011;11079;51.092;3.458;2022-10-19T09:38:21;16.38;;;5.18;;
21833;SDS011;11079;51.092;3.458;2022-10-19T09:41:10;8.73;;;4.20;;
21833;SDS011;11079;51.092;3.458;2022-10-19T09:43:52;10.90;;;4.60;;
21833;SDS011;11079;51.092;3.458;2022-10-19T09:46:26;8.82;;;4.10;;
21833;SDS011;11079;51.092;3.458;2022-10-19T09:49:43;10.57;;;3.92;;
21833;SDS011;11079;51.092;3.458;2022-10-19T09:52:37;12.07;;;4.47;;
21833;SDS011;11079;51.092;3.458;2022-10-19T09:57:49;13.70;;;4.53;;
21833;SDS011;11079;51.092;3.458;2022-10-19T10:06:47;11.77;;;5.22;;
21833;SDS011;11079;51.092;3.458;2022-10-19T10:12:23;12.50;;;4.90;;
21833;SDS011;11079;51.092;3.458;2022-10-19T10:14:52;11.63;;;4.30;;
21833;SDS011;11079;51.092;3.458;2022-10-19T10:18:16;10.02;;;4.35;;
21833;SDS011;11079;51.092;3.458;2022-10-19T10:20:54;9.43;;;4.13;;
21833;SDS011;11079;51.092;3.458;2022-10-19T10:27:31;10.57;;;4.68;;
21833;SDS011;11079;51.092;3.458;2022-10-19T10:30:24;12.60;;;4.43;;
21833;SDS011;11079;51.092;3.458;2022-10-19T10:33:36;9.50;;;4.65;;
21833;SDS011;11079;51.092;3.458;2022-10-19T10:36:23;12.63;;;5.00;;
21833;SDS011;11079;51.092;3.458;2022-10-19T10:39:14;13.63;;;4.80;;
21833;SDS011;11079;51.092;3.458;2022-10-19T10:42:21;13.18;;;5.20;;
21833;SDS011;11079;51.092;3.458;2022-10-19T10:48:43;13.02;;;5.93;;
21833;SDS011;11079;51.092;3.458;2022-10-19T10:51:52;9.85;;;4.65;;
21833;SDS011;11079;51.092;3.458;2022-10-19T10:58:40;12.85;;;4.93;;
21833;SDS011;11079;51.092;3.458;2022-10-19T11:01:38;13.77;;;5.50;;
21833;SDS011;11079;51.092;3.458;2022-10-19T11:04:25;12.13;;;5.30;;
21833;SDS011;11079;51.092;3.458;2022-10-19T11:16:57;10.43;;;5.15;;
21833;SDS011;11079;51.092;3.458;2022-10-19T11:20:05;11.93;;;5.65;;
21833;SDS011;11079;51.092;3.458;2022-10-19T11:31:57;13.85;;;5.10;;
21833;SDS011;11079;51.092;3.458;2022-10-19T11:51:59;14.77;;;5.80;;
21833;SDS011;11079;51.092;3.458;2022-10-19T11:54:52;14.80;;;6.68;;
21833;SDS011;11079;51.092;3.458;2022-10-19T12:00:11;12.85;;;6.60;;
21833;SDS011;11079;51.092;3.458;2022-10-19T12:02:49;13.02;;;6.05;;
21833;SDS011;11079;51.092;3.458;2022-10-19T12:05:46;11.60;;;6.45;;
21833;SDS011;11079;51.092;3.458;2022-10-19T12:11:33;11.25;;;6.03;;
21833;SDS011;11079;51.092;3.458;2022-10-19T12:14:17;13.93;;;6.60;;
21833;SDS011;11079;51.092;3.458;2022-10-19T12:16:49;14.45;;;7.25;;
21833;SDS011;11079;51.092;3.458;2022-10-19T12:19:26;14.93;;;6.28;;
21833;SDS011;11079;51.092;3.458;2022-10-19T12:22:03;12.77;;;6.85;;
21833;SDS011;11079;51.092;3.458;2022-10-19T12:24:31;14.55;;;6.82;;
21833;SDS011;11079;51.092;3.458;2022-10-19T12:26:58;14.38;;;7.15;;
21833;SDS011;11079;51.092;3.458;2022-10-19T12:29:27;14.40;;;7.13;;
21833;SDS011;11079;51.092;3.458;2022-10-19T12:31:56;12.05;;;6.45;;
21833;SDS011;11079;51.092;3.458;2022-10-19T12:34:46;16.40;;;7.20;;
21833;SDS011;11079;51.092;3.458;2022-10-19T12:39:59;13.05;;;6.75;;
21833;SDS011;11079;51.092;3.458;2022-10-19T12:51:55;12.40;;;6.70;;
21833;SDS011;11079;51.092;3.458;2022-10-19T12:54:23;13.88;;;7.65;;
21833;SDS011;11079;51.092;3.458;2022-10-19T12:56:57;13.70;;;7.00;;
21833;SDS011;11079;51.092;3.458;2022-10-19T12:59:32;13.98;;;6.85;;
21833;SDS011;11079;51.092;3.458;2022-10-19T13:02:00;15.20;;;8.40;;
21833;SDS011;11079;51.092;3.458;2022-10-19T13:04:31;19.88;;;7.18;;
21833;SDS011;11079;51.092;3.458;2022-10-19T13:07:03;17.42;;;7.93;;
21833;SDS011;11079;51.092;3.458;2022-10-19T13:09:38;12.25;;;7.55;;
21833;SDS011;11079;51.092;3.458;2022-10-19T13:14:58;11.85;;;6.55;;
21833;SDS011;11079;51.092;3.458;2022-10-19T13:22:42;15.18;;;8.50;;
21833;SDS011;11079;51.092;3.458;2022-10-19T13:25:22;14.95;;;7.60;;
21833;SDS011;11079;51.092;3.458;2022-10-19T13:27:49;16.50;;;7.35;;
21833;SDS011;11079;51.092;3.458;2022-10-19T13:38:35;12.20;;;7.35;;
21833;SDS011;11079;51.092;3.458;2022-10-19T13:46:43;19.50;;;8.18;;
21833;SDS011;11079;51.092;3.458;2022-10-19T14:00:23;13.60;;;7.75;;
21833;SDS011;11079;51.092;3.458;2022-10-19T14:03:01;14.07;;;7.82;;
21833;SDS011;11079;51.092;3.458;2022-10-19T14:05:56;14.77;;;7.68;;
21833;SDS011;11079;51.092;3.458;2022-10-19T14:11:53;19.50;;;8.40;;
21833;SDS011;11079;51.092;3.458;2022-10-19T14:14:30;14.43;;;7.68;;
21833;SDS011;11079;51.092;3.458;2022-10-19T14:17:12;16.70;;;7.65;;
21833;SDS011;11079;51.092;3.458;2022-10-19T14:19:44;12.55;;;7.75;;
21833;SDS011;11079;51.092;3.458;2022-10-19T14:22:19;14.68;;;7.80;;
21833;SDS011;11079;51.092;3.458;2022-10-19T14:25:06;15.70;;;7.43;;
21833;SDS011;11079;51.092;3.458;2022-10-19T14:27:43;17.10;;;8.07;;
21833;SDS011;11079;51.092;3.458;2022-10-19T14:30:19;17.23;;;7.60;;
21833;SDS011;11079;51.092;3.458;2022-10-19T14:32:47;10.95;;;7.25;;
21833;SDS011;11079;51.092;3.458;2022-10-19T14:35:17;13.45;;;7.50;;
21833;SDS011;11079;51.092;3.458;2022-10-19T14:37:46;18.10;;;7.97;;
21833;SDS011;11079;51.092;3.458;2022-10-19T14:42:57;15.90;;;7.68;;
21833;SDS011;11079;51.092;3.458;2022-10-19T14:45:26;15.98;;;7.45;;
21833;SDS011;11079;51.092;3.458;2022-10-19T14:50:50;15.10;;;7.57;;
21833;SDS011;11079;51.092;3.458;2022-10-19T14:53:34;13.73;;;7.47;;
21833;SDS011;11079;51.092;3.458;2022-10-19T14:56:06;16.75;;;6.97;;
21833;SDS011;11079;51.092;3.458;2022-10-19T14:58:54;14.60;;;7.03;;
21833;SDS011;11079;51.092;3.458;2022-10-19T15:01:23;13.73;;;6.63;;
21833;SDS011;11079;51.092;3.458;2022-10-19T15:03:49;12.60;;;7.22;;
21833;SDS011;11079;51.092;3.458;2022-10-19T15:06:18;14.98;;;6.78;;
21833;SDS011;11079;51.092;3.458;2022-10-19T15:09:04;13.65;;;6.90;;
21833;SDS011;11079;51.092;3.458;2022-10-19T15:11:42;14.38;;;7.10;;
21833;SDS011;11079;51.092;3.458;2022-10-19T15:14:14;12.25;;;7.05;;
21833;SDS011;11079;51.092;3.458;2022-10-19T15:16:55;15.18;;;6.25;;
21833;SDS011;11079;51.092;3.458;2022-10-19T15:19:32;12.50;;;7.07;;
21833;SDS011;11079;51.092;3.458;2022-10-19T15:22:06;14.40;;;7.68;;
21833;SDS011;11079;51.092;3.458;2022-10-19T15:24:36;12.02;;;6.72;;
21833;SDS011;11079;51.092;3.458;2022-10-19T15:27:09;13.43;;;7.10;;
21833;SDS011;11079;51.092;3.458;2022-10-19T15:29:52;17.95;;;7.30;;
21833;SDS011;11079;51.092;3.458;2022-10-19T15:32:29;12.60;;;6.93;;
21833;SDS011;11079;51.092;3.458;2022-10-19T15:35:06;15.10;;;6.82;;
21833;SDS011;11079;51.092;3.458;2022-10-19T15:37:41;14.18;;;7.00;;
21833;SDS011;11079;51.092;3.458;2022-10-19T15:40:12;12.88;;;7.13;;
21833;SDS011;11079;51.092;3.458;2022-10-19T15:42:47;15.10;;;6.90;;
21833;SDS011;11079;51.092;3.458;2022-10-19T15:45:26;12.55;;;7.85;;
21833;SDS011;11079;51.092;3.458;2022-10-19T15:48:13;13.80;;;7.88;;
21833;SDS011;11079;51.092;3.458;2022-10-19T15:50:46;15.93;;;8.43;;
21833;SDS011;11079;51.092;3.458;2022-10-19T15:53:14;13.10;;;7.57;;
21833;SDS011;11079;51.092;3.458;2022-10-19T15:55:40;17.00;;;7.05;;
21833;SDS011;11079;51.092;3.458;2022-10-19T15:58:07;17.42;;;7.57;;
21833;SDS011;11079;51.092;3.458;2022-10-19T16:00:34;16.58;;;7.32;;
21833;SDS011;11079;51.092;3.458;2022-10-19T16:03:00;15.02;;;7.22;;
21833;SDS011;11079;51.092;3.458;2022-10-19T16:05:26;15.55;;;7.03;;
21833;SDS011;11079;51.092;3.458;2022-10-19T16:07:52;18.60;;;8.45;;
21833;SDS011;11079;51.092;3.458;2022-10-19T16:10:22;15.00;;;7.57;;
21833;SDS011;11079;51.092;3.458;2022-10-19T16:12:50;13.07;;;7.57;;
21833;SDS011;11079;51.092;3.458;2022-10-19T16:15:17;14.00;;;7.75;;
21833;SDS011;11079;51.092;3.458;2022-10-19T16:17:57;13.27;;;6.50;;
21833;SDS011;11079;51.092;3.458;2022-10-19T16:20:24;12.65;;;7.53;;
21833;SDS011;11079;51.092;3.458;2022-10-19T16:22:51;15.02;;;7.68;;
21833;SDS011;11079;51.092;3.458;2022-10-19T16:25:17;12.82;;;7.18;;
21833;SDS011;11079;51.092;3.458;2022-10-19T16:27:42;17.20;;;7.43;;
21833;SDS011;11079;51.092;3.458;2022-10-19T16:30:08;25.65;;;7.57;;
21833;SDS011;11079;51.092;3.458;2022-10-19T16:32:34;14.93;;;7.32;;
21833;SDS011;11079;51.092;3.458;2022-10-19T16:35:04;14.60;;;7.75;;
21833;SDS011;11079;51.092;3.458;2022-10-19T16:37:35;13.82;;;7.40;;
21833;SDS011;11079;51.092;3.458;2022-10-19T16:40:04;15.07;;;8.43;;
21833;SDS011;11079;51.092;3.458;2022-10-19T16:42:38;17.23;;;8.75;;
21833;SDS011;11079;51.092;3.458;2022-10-19T16:45:04;16.13;;;9.38;;
21833;SDS011;11079;51.092;3.458;2022-10-19T16:47:33;17.02;;;7.97;;
21833;SDS011;11079;51.092;3.458;2022-10-19T16:50:09;16.00;;;8.43;;
21833;SDS011;11079;51.092;3.458;2022-10-19T16:52:35;17.15;;;8.15;;
21833;SDS011;11079;51.092;3.458;2022-10-19T16:55:01;18.15;;;8.77;;
21833;SDS011;11079;51.092;3.458;2022-10-19T16:57:28;16.48;;;8.10;;
21833;SDS011;11079;51.092;3.458;2022-10-19T16:59:57;14.32;;;8.43;;
21833;SDS011;11079;51.092;3.458;2022-10-19T17:08:38;16.98;;;8.65;;
21833;SDS011;11079;51.092;3.458;2022-10-19T17:25:06;21.05;;;9.82;;
21833;SDS011;11079;51.092;3.458;2022-10-19T17:28:12;18.50;;;9.50;;
21833;SDS011;11079;51.092;3.458;2022-10-19T17:42:46;19.15;;;9.85;;
21833;SDS011;11079;51.092;3.458;2022-10-19T17:48:40;21.35;;;10.48;;
21833;SDS011;11079;51.092;3.458;2022-10-19T18:02:38;17.70;;;11.40;;
21833;SDS011;11079;51.092;3.458;2022-10-19T18:05:27;20.35;;;12.45;;
21833;SDS011;11079;51.092;3.458;2022-10-19T18:08:39;19.67;;;12.55;;
21833;SDS011;11079;51.092;3.458;2022-10-19T18:14:41;20.85;;;11.85;;
21833;SDS011;11079;51.092;3.458;2022-10-19T18:20:13;20.70;;;12.48;;
21833;SDS011;11079;51.092;3.458;2022-10-19T18:25:51;18.90;;;12.23;;
21833;SDS011;11079;51.092;3.458;2022-10-19T18:28:17;18.48;;;13.23;;
21833;SDS011;11079;51.092;3.458;2022-10-19T18:30:42;25.10;;;13.77;;
21833;SDS011;11079;51.092;3.458;2022-10-19T18:33:08;24.67;;;14.25;;
21833;SDS011;11079;51.092;3.458;2022-10-19T18:35:38;22.95;;;14.60;;
21833;SDS011;11079;51.092;3.458;2022-10-19T18:38:16;22.08;;;14.63;;
21833;SDS011;11079;51.092;3.458;2022-10-19T18:40:42;22.40;;;14.43;;
21833;SDS011;11079;51.092;3.458;2022-10-19T18:43:08;22.05;;;14.73;;
21833;SDS011;11079;51.092;3.458;2022-10-19T18:45:34;25.77;;;14.60;;
21833;SDS011;11079;51.092;3.458;2022-10-19T18:47:59;25.92;;;15.63;;
21833;SDS011;11079;51.092;3.458;2022-10-19T18:50:27;28.90;;;16.23;;
21833;SDS011;11079;51.092;3.458;2022-10-19T18:53:21;24.77;;;15.93;;
21833;SDS011;11079;51.092;3.458;2022-10-19T18:55:57;32.00;;;16.02;;
21833;SDS011;11079;51.092;3.458;2022-10-19T18:58:50;25.00;;;15.90;;
21833;SDS011;11079;51.092;3.458;2022-10-19T19:01:29;27.88;;;16.38;;
21833;SDS011;11079;51.092;3.458;2022-10-19T19:03:56;28.10;;;17.33;;
21833;SDS011;11079;51.092;3.458;2022-10-19T19:06:31;27.13;;;16.60;;
21833;SDS011;11079;51.092;3.458;2022-10-19T19:08:59;27.65;;;17.30;;
21833;SDS011;11079;51.092;3.458;2022-10-19T19:11:26;24.85;;;16.42;;
21833;SDS011;11079;51.092;3.458;2022-10-19T19:14:01;30.20;;;18.02;;
21833;SDS011;11079;51.092;3.458;2022-10-19T19:16:32;31.30;;;17.70;;
21833;SDS011;11079;51.092;3.458;2022-10-19T19:19:01;25.95;;;17.85;;
21833;SDS011;11079;51.092;3.458;2022-10-19T19:24:09;28.80;;;17.42;;
21833;SDS011;11079;51.092;3.458;2022-10-19T19:26:59;30.38;;;17.80;;
21833;SDS011;11079;51.092;3.458;2022-10-19T19:29:25;29.05;;;17.23;;
21833;SDS011;11079;51.092;3.458;2022-10-19T19:32:12;30.45;;;17.63;;
21833;SDS011;11079;51.092;3.458;2022-10-19T19:34:39;28.35;;;17.75;;
21833;SDS011;11079;51.092;3.458;2022-10-19T19:37:05;28.38;;;17.73;;
21833;SDS011;11079;51.092;3.458;2022-10-19T19:39:30;35.83;;;18.58;;
21833;SDS011;11079;51.092;3.458;2022-10-19T19:41:57;27.98;;;18.15;;
21833;SDS011;11079;51.092;3.458;2022-10-19T19:44:23;30.65;;;19.42;;
21833;SDS011;11079;51.092;3.458;2022-10-19T19:46:53;34.15;;;18.35;;
21833;SDS011;11079;51.092;3.458;2022-10-19T19:49:21;30.20;;;19.02;;
21833;SDS011;11079;51.092;3.458;2022-10-19T19:51:49;27.17;;;16.92;;
21833;SDS011;11079;51.092;3.458;2022-10-19T19:54:17;31.13;;;18.80;;
21833;SDS011;11079;51.092;3.458;2022-10-19T19:56:45;29.52;;;18.23;;
21833;SDS011;11079;51.092;3.458;2022-10-19T19:59:15;29.80;;;17.65;;
21833;SDS011;11079;51.092;3.458;2022-10-19T20:01:52;32.63;;;17.95;;
21833;SDS011;11079;51.092;3.458;2022-10-19T20:04:18;28.42;;;17.30;;
21833;SDS011;11079;51.092;3.458;2022-10-19T20:06:44;29.02;;;17.85;;
21833;SDS011;11079;51.092;3.458;2022-10-19T20:09:09;29.50;;;17.38;;
21833;SDS011;11079;51.092;3.458;2022-10-19T20:11:35;27.58;;;17.58;;
21833;SDS011;11079;51.092;3.458;2022-10-19T20:14:02;34.05;;;18.30;;
21833;SDS011;11079;51.092;3.458;2022-10-19T20:16:28;29.00;;;17.08;;
21833;SDS011;11079;51.092;3.458;2022-10-19T20:18:59;27.17;;;17.13;;
21833;SDS011;11079;51.092;3.458;2022-10-19T20:21:44;28.55;;;16.27;;